Aérodrome :
LOGIN :

S'inscrire | Disclaimer

   EN    FR    IT 

 










Légende :    VFR   VFR Marginal   IFR   IFR Intensif   IFR Très Intensif
Visi : 
Plafond : 
>= 8 km
>= 3000ft
5 à 8 km
1000 à 3000 ft
1500m à 5 km
500 à 1000 ft
800 à 1500m
200 à 500 ft
< 800m
< 200 ft
Symboles :   Orages  Brouillard  Fortes neiges  Fortes précipitations  Vent > 20 kt
SIGMETs :   Divers  Orages  Givrage  Turbulence  Onde Orograph.  Cendres Volcan.






- Altitude de l'aérodrome : 53 ft
- Code IATA : LBC


EDHL - Lübeck

DERNIER METAR :
  • 071050Z 27006KT 240V300 9999 BKN032 09/06 Q1004

METARs EXPIRÉS :
  • 071020Z 28007KT 240V330 9999 FEW012 BKN030 09/06 Q1004
  • 070950Z 28007KT 250V340 9999 BKN012 09/07 Q1004
  • 070920Z 28008KT 240V330 9000 VCSH BKN012CB 08/07 Q1003 REDZ
  • 070850Z 27011KT 240V310 9999 BKN012 09/07 Q1003
  • 070820Z 27010KT 230V310 9999 BKN012 09/07 Q1002

TAF TAF EDHL
Valide du 07 à 09h jusqu'au 07 à 18h UTC


070800Z 0709/0718 27010KT 9999 SCT010 BKN015
PROB40
TEMPO 0709/0715 26015G25KT 4000 SHRA BKN012CB
PROB30
TEMPO 0715/0718 BKN014



MET'MAP, la Météo Aéronautique d'un coup d'oeil ! - Copyright ORBIFLY Décembre 2007 - Disclaimer

ORBIFLY MET'MAP TEAM :

Programmation & Développement : Alexandra Zaïnal
Sur une idée originale de : Baudouin d'Aumeries
Assistance à la programmation : Marc-Olivier Méhu
Soutien technique & logistique : Manuel Goepfert

Contact : metmap@orbifly.com




SOURCES & CREDITS :

   NOAA